sensor_id;sensor_type;location;lat;lon;timestamp;P1;durP1;ratioP1;P2;durP2;ratioP2
11431;SDS011;5772;50.940;6.782;2023-05-10T00:01:33;36.10;;;33.53;;
11431;SDS011;5772;50.940;6.782;2023-05-10T00:03:59;35.80;;;33.63;;
11431;SDS011;5772;50.940;6.782;2023-05-10T00:06:24;36.70;;;34.40;;
11431;SDS011;5772;50.940;6.782;2023-05-10T00:08:50;38.90;;;36.17;;
11431;SDS011;5772;50.940;6.782;2023-05-10T00:11:16;36.90;;;34.70;;
11431;SDS011;5772;50.940;6.782;2023-05-10T00:13:42;38.53;;;36.07;;
11431;SDS011;5772;50.940;6.782;2023-05-10T00:16:07;38.33;;;36.10;;
11431;SDS011;5772;50.940;6.782;2023-05-10T00:18:33;36.67;;;34.33;;
11431;SDS011;5772;50.940;6.782;2023-05-10T00:20:58;37.50;;;34.87;;
11431;SDS011;5772;50.940;6.782;2023-05-10T00:23:23;37.30;;;35.00;;
11431;SDS011;5772;50.940;6.782;2023-05-10T00:25:49;38.67;;;36.13;;
11431;SDS011;5772;50.940;6.782;2023-05-10T00:28:15;37.23;;;34.63;;
11431;SDS011;5772;50.940;6.782;2023-05-10T00:30:41;39.73;;;37.13;;
11431;SDS011;5772;50.940;6.782;2023-05-10T00:33:06;37.10;;;34.67;;
11431;SDS011;5772;50.940;6.782;2023-05-10T00:35:31;37.10;;;34.63;;
11431;SDS011;5772;50.940;6.782;2023-05-10T00:37:57;38.07;;;35.73;;
11431;SDS011;5772;50.940;6.782;2023-05-10T00:40:22;37.97;;;35.43;;
11431;SDS011;5772;50.940;6.782;2023-05-10T00:42:47;36.67;;;34.37;;
11431;SDS011;5772;50.940;6.782;2023-05-10T00:45:14;37.47;;;35.20;;
11431;SDS011;5772;50.940;6.782;2023-05-10T00:47:40;38.47;;;35.77;;
11431;SDS011;5772;50.940;6.782;2023-05-10T00:50:05;37.67;;;35.03;;
11431;SDS011;5772;50.940;6.782;2023-05-10T00:52:31;37.50;;;35.37;;
11431;SDS011;5772;50.940;6.782;2023-05-10T00:54:57;37.63;;;34.97;;
11431;SDS011;5772;50.940;6.782;2023-05-10T00:57:22;35.97;;;33.77;;
11431;SDS011;5772;50.940;6.782;2023-05-10T00:59:48;38.90;;;36.43;;
11431;SDS011;5772;50.940;6.782;2023-05-10T01:02:15;37.73;;;35.50;;
11431;SDS011;5772;50.940;6.782;2023-05-10T01:04:40;36.53;;;34.27;;
11431;SDS011;5772;50.940;6.782;2023-05-10T01:07:05;38.10;;;35.70;;
11431;SDS011;5772;50.940;6.782;2023-05-10T01:09:31;36.33;;;34.30;;
11431;SDS011;5772;50.940;6.782;2023-05-10T01:11:57;33.87;;;31.87;;
11431;SDS011;5772;50.940;6.782;2023-05-10T01:14:22;36.13;;;33.87;;
11431;SDS011;5772;50.940;6.782;2023-05-10T01:16:48;36.63;;;34.17;;
11431;SDS011;5772;50.940;6.782;2023-05-10T01:19:17;39.27;;;36.67;;
11431;SDS011;5772;50.940;6.782;2023-05-10T01:21:46;36.03;;;33.67;;
11431;SDS011;5772;50.940;6.782;2023-05-10T01:24:26;34.17;;;32.17;;
11431;SDS011;5772;50.940;6.782;2023-05-10T01:27:14;35.03;;;32.90;;
11431;SDS011;5772;50.940;6.782;2023-05-10T01:30:00;36.73;;;34.43;;
11431;SDS011;5772;50.940;6.782;2023-05-10T01:32:44;34.07;;;32.13;;
11431;SDS011;5772;50.940;6.782;2023-05-10T01:35:15;35.63;;;33.40;;
11431;SDS011;5772;50.940;6.782;2023-05-10T01:37:43;33.80;;;31.50;;
11431;SDS011;5772;50.940;6.782;2023-05-10T01:40:14;35.00;;;32.67;;
11431;SDS011;5772;50.940;6.782;2023-05-10T01:42:46;37.27;;;34.97;;
11431;SDS011;5772;50.940;6.782;2023-05-10T01:45:14;35.70;;;33.37;;
11431;SDS011;5772;50.940;6.782;2023-05-10T01:47:48;34.10;;;31.43;;
11431;SDS011;5772;50.940;6.782;2023-05-10T01:50:17;32.93;;;30.83;;
11431;SDS011;5772;50.940;6.782;2023-05-10T01:52:44;32.57;;;30.53;;
11431;SDS011;5772;50.940;6.782;2023-05-10T01:55:15;30.30;;;28.60;;
11431;SDS011;5772;50.940;6.782;2023-05-10T01:57:42;31.57;;;29.87;;
11431;SDS011;5772;50.940;6.782;2023-05-10T02:00:09;32.13;;;30.30;;
11431;SDS011;5772;50.940;6.782;2023-05-10T02:02:36;33.73;;;31.60;;
11431;SDS011;5772;50.940;6.782;2023-05-10T02:05:05;32.90;;;31.07;;
11431;SDS011;5772;50.940;6.782;2023-05-10T02:07:31;33.07;;;31.33;;
11431;SDS011;5772;50.940;6.782;2023-05-10T02:09:57;34.83;;;32.90;;
11431;SDS011;5772;50.940;6.782;2023-05-10T02:12:23;42.90;;;40.77;;
11431;SDS011;5772;50.940;6.782;2023-05-10T02:14:49;42.37;;;39.87;;
11431;SDS011;5772;50.940;6.782;2023-05-10T02:17:16;41.33;;;39.00;;
11431;SDS011;5772;50.940;6.782;2023-05-10T02:19:41;41.67;;;39.33;;
11431;SDS011;5772;50.940;6.782;2023-05-10T02:22:08;42.87;;;40.57;;
11431;SDS011;5772;50.940;6.782;2023-05-10T02:24:34;42.50;;;40.20;;
11431;SDS011;5772;50.940;6.782;2023-05-10T02:27:01;44.43;;;41.93;;
11431;SDS011;5772;50.940;6.782;2023-05-10T02:29:27;44.90;;;42.13;;
11431;SDS011;5772;50.940;6.782;2023-05-10T02:31:54;42.73;;;40.20;;
11431;SDS011;5772;50.940;6.782;2023-05-10T02:34:20;43.77;;;41.30;;
11431;SDS011;5772;50.940;6.782;2023-05-10T02:36:47;43.30;;;40.97;;
11431;SDS011;5772;50.940;6.782;2023-05-10T02:39:14;46.47;;;43.87;;
11431;SDS011;5772;50.940;6.782;2023-05-10T02:41:41;45.27;;;42.33;;
11431;SDS011;5772;50.940;6.782;2023-05-10T02:44:07;43.73;;;41.17;;
11431;SDS011;5772;50.940;6.782;2023-05-10T02:46:32;44.83;;;42.20;;
11431;SDS011;5772;50.940;6.782;2023-05-10T02:48:58;44.67;;;41.90;;
11431;SDS011;5772;50.940;6.782;2023-05-10T02:51:24;47.03;;;44.20;;
11431;SDS011;5772;50.940;6.782;2023-05-10T02:53:50;45.83;;;42.97;;
11431;SDS011;5772;50.940;6.782;2023-05-10T02:56:23;44.37;;;41.83;;
11431;SDS011;5772;50.940;6.782;2023-05-10T02:58:50;46.30;;;43.77;;
11431;SDS011;5772;50.940;6.782;2023-05-10T03:01:15;46.23;;;43.57;;
11431;SDS011;5772;50.940;6.782;2023-05-10T03:03:40;47.43;;;44.80;;
11431;SDS011;5772;50.940;6.782;2023-05-10T03:06:06;45.70;;;43.23;;
11431;SDS011;5772;50.940;6.782;2023-05-10T03:08:31;45.73;;;43.23;;
11431;SDS011;5772;50.940;6.782;2023-05-10T03:11:01;46.83;;;43.87;;
11431;SDS011;5772;50.940;6.782;2023-05-10T03:13:42;45.40;;;42.80;;
11431;SDS011;5772;50.940;6.782;2023-05-10T03:16:10;44.23;;;41.93;;
11431;SDS011;5772;50.940;6.782;2023-05-10T03:18:40;46.67;;;43.67;;
11431;SDS011;5772;50.940;6.782;2023-05-10T03:21:07;49.00;;;45.93;;
11431;SDS011;5772;50.940;6.782;2023-05-10T03:23:38;44.07;;;41.67;;
11431;SDS011;5772;50.940;6.782;2023-05-10T03:26:06;43.37;;;40.97;;
11431;SDS011;5772;50.940;6.782;2023-05-10T03:28:32;47.10;;;44.30;;
11431;SDS011;5772;50.940;6.782;2023-05-10T03:31:00;43.93;;;41.47;;
11431;SDS011;5772;50.940;6.782;2023-05-10T03:33:26;42.20;;;39.80;;
11431;SDS011;5772;50.940;6.782;2023-05-10T03:35:51;44.37;;;41.73;;
11431;SDS011;5772;50.940;6.782;2023-05-10T03:38:17;46.27;;;43.67;;
11431;SDS011;5772;50.940;6.782;2023-05-10T03:40:42;44.90;;;42.03;;
11431;SDS011;5772;50.940;6.782;2023-05-10T03:43:07;46.20;;;43.53;;
11431;SDS011;5772;50.940;6.782;2023-05-10T03:45:33;43.67;;;41.17;;
11431;SDS011;5772;50.940;6.782;2023-05-10T03:48:00;41.60;;;39.30;;
11431;SDS011;5772;50.940;6.782;2023-05-10T03:50:25;40.10;;;37.73;;
11431;SDS011;5772;50.940;6.782;2023-05-10T03:52:50;42.33;;;39.73;;
11431;SDS011;5772;50.940;6.782;2023-05-10T03:55:16;37.70;;;35.40;;
11431;SDS011;5772;50.940;6.782;2023-05-10T03:57:41;39.57;;;37.13;;
11431;SDS011;5772;50.940;6.782;2023-05-10T04:00:07;37.93;;;35.00;;
11431;SDS011;5772;50.940;6.782;2023-05-10T04:02:33;37.60;;;35.10;;
11431;SDS011;5772;50.940;6.782;2023-05-10T04:05:00;34.40;;;32.30;;
11431;SDS011;5772;50.940;6.782;2023-05-10T04:07:25;35.60;;;33.33;;
11431;SDS011;5772;50.940;6.782;2023-05-10T04:09:51;35.20;;;32.47;;
11431;SDS011;5772;50.940;6.782;2023-05-10T04:12:16;35.70;;;33.27;;
11431;SDS011;5772;50.940;6.782;2023-05-10T04:14:41;34.50;;;32.17;;
11431;SDS011;5772;50.940;6.782;2023-05-10T04:17:07;35.93;;;33.53;;
11431;SDS011;5772;50.940;6.782;2023-05-10T04:19:32;36.07;;;33.40;;
11431;SDS011;5772;50.940;6.782;2023-05-10T04:21:59;34.07;;;31.83;;
11431;SDS011;5772;50.940;6.782;2023-05-10T04:24:24;36.23;;;33.50;;
11431;SDS011;5772;50.940;6.782;2023-05-10T04:26:50;34.83;;;32.57;;
11431;SDS011;5772;50.940;6.782;2023-05-10T04:29:15;33.30;;;31.00;;
11431;SDS011;5772;50.940;6.782;2023-05-10T04:31:41;34.43;;;32.07;;
11431;SDS011;5772;50.940;6.782;2023-05-10T04:34:06;33.77;;;31.57;;
11431;SDS011;5772;50.940;6.782;2023-05-10T04:36:31;34.73;;;32.43;;
11431;SDS011;5772;50.940;6.782;2023-05-10T04:38:58;34.03;;;31.73;;
11431;SDS011;5772;50.940;6.782;2023-05-10T04:41:23;32.67;;;30.53;;
11431;SDS011;5772;50.940;6.782;2023-05-10T04:43:49;31.87;;;29.83;;
11431;SDS011;5772;50.940;6.782;2023-05-10T04:46:14;33.47;;;31.07;;
11431;SDS011;5772;50.940;6.782;2023-05-10T04:48:39;33.30;;;31.30;;
11431;SDS011;5772;50.940;6.782;2023-05-10T04:51:05;32.87;;;30.67;;
11431;SDS011;5772;50.940;6.782;2023-05-10T04:53:30;33.30;;;30.80;;
11431;SDS011;5772;50.940;6.782;2023-05-10T04:55:57;34.97;;;32.47;;
11431;SDS011;5772;50.940;6.782;2023-05-10T04:58:22;31.57;;;29.27;;
11431;SDS011;5772;50.940;6.782;2023-05-10T05:00:48;34.03;;;31.43;;
11431;SDS011;5772;50.940;6.782;2023-05-10T05:03:13;34.33;;;31.80;;
11431;SDS011;5772;50.940;6.782;2023-05-10T05:05:38;33.83;;;31.47;;
11431;SDS011;5772;50.940;6.782;2023-05-10T05:08:04;36.00;;;33.37;;
11431;SDS011;5772;50.940;6.782;2023-05-10T05:10:29;32.73;;;30.27;;
11431;SDS011;5772;50.940;6.782;2023-05-10T05:12:56;33.43;;;30.93;;
11431;SDS011;5772;50.940;6.782;2023-05-10T05:15:21;33.90;;;31.50;;
11431;SDS011;5772;50.940;6.782;2023-05-10T05:17:47;37.17;;;34.10;;
11431;SDS011;5772;50.940;6.782;2023-05-10T05:20:12;35.63;;;33.03;;
11431;SDS011;5772;50.940;6.782;2023-05-10T05:22:38;33.47;;;31.00;;
11431;SDS011;5772;50.940;6.782;2023-05-10T05:25:04;34.97;;;32.40;;
11431;SDS011;5772;50.940;6.782;2023-05-10T05:27:30;32.13;;;30.10;;
11431;SDS011;5772;50.940;6.782;2023-05-10T05:29:57;36.93;;;34.30;;
11431;SDS011;5772;50.940;6.782;2023-05-10T05:32:23;33.50;;;30.87;;
11431;SDS011;5772;50.940;6.782;2023-05-10T05:34:49;33.17;;;31.17;;
11431;SDS011;5772;50.940;6.782;2023-05-10T05:37:15;35.67;;;33.47;;
11431;SDS011;5772;50.940;6.782;2023-05-10T05:39:41;35.27;;;32.57;;
11431;SDS011;5772;50.940;6.782;2023-05-10T05:42:06;36.43;;;33.80;;
11431;SDS011;5772;50.940;6.782;2023-05-10T05:44:31;33.37;;;31.17;;
11431;SDS011;5772;50.940;6.782;2023-05-10T05:46:58;36.77;;;34.30;;
11431;SDS011;5772;50.940;6.782;2023-05-10T05:49:24;36.00;;;33.70;;
11431;SDS011;5772;50.940;6.782;2023-05-10T05:51:49;34.03;;;31.93;;
11431;SDS011;5772;50.940;6.782;2023-05-10T05:54:14;34.57;;;32.37;;
11431;SDS011;5772;50.940;6.782;2023-05-10T05:56:40;33.93;;;31.87;;
11431;SDS011;5772;50.940;6.782;2023-05-10T05:59:05;31.80;;;29.80;;
11431;SDS011;5772;50.940;6.782;2023-05-10T06:01:30;32.53;;;30.40;;
11431;SDS011;5772;50.940;6.782;2023-05-10T06:03:57;33.40;;;31.50;;
11431;SDS011;5772;50.940;6.782;2023-05-10T06:06:22;32.43;;;30.33;;
11431;SDS011;5772;50.940;6.782;2023-05-10T06:08:48;32.47;;;30.40;;
11431;SDS011;5772;50.940;6.782;2023-05-10T06:11:13;32.03;;;29.97;;
11431;SDS011;5772;50.940;6.782;2023-05-10T06:13:39;29.37;;;27.57;;
11431;SDS011;5772;50.940;6.782;2023-05-10T06:16:04;34.23;;;31.90;;
11431;SDS011;5772;50.940;6.782;2023-05-10T06:18:30;31.00;;;28.70;;
11431;SDS011;5772;50.940;6.782;2023-05-10T06:20:57;31.23;;;29.13;;
11431;SDS011;5772;50.940;6.782;2023-05-10T06:23:22;33.17;;;30.63;;
11431;SDS011;5772;50.940;6.782;2023-05-10T06:25:47;31.53;;;29.10;;
11431;SDS011;5772;50.940;6.782;2023-05-10T06:28:13;30.73;;;28.87;;
11431;SDS011;5772;50.940;6.782;2023-05-10T06:30:38;29.80;;;27.80;;
11431;SDS011;5772;50.940;6.782;2023-05-10T06:33:03;34.17;;;31.77;;
11431;SDS011;5772;50.940;6.782;2023-05-10T06:35:29;32.47;;;29.73;;
11431;SDS011;5772;50.940;6.782;2023-05-10T06:37:55;30.97;;;28.53;;
11431;SDS011;5772;50.940;6.782;2023-05-10T06:40:21;31.30;;;29.00;;
11431;SDS011;5772;50.940;6.782;2023-05-10T06:42:46;32.10;;;29.77;;
11431;SDS011;5772;50.940;6.782;2023-05-10T06:45:12;32.97;;;30.87;;
11431;SDS011;5772;50.940;6.782;2023-05-10T06:47:38;33.97;;;31.23;;
11431;SDS011;5772;50.940;6.782;2023-05-10T06:50:03;34.27;;;31.93;;
11431;SDS011;5772;50.940;6.782;2023-05-10T06:52:29;33.43;;;31.07;;
11431;SDS011;5772;50.940;6.782;2023-05-10T06:54:56;35.57;;;33.13;;
11431;SDS011;5772;50.940;6.782;2023-05-10T06:57:21;38.40;;;35.50;;
11431;SDS011;5772;50.940;6.782;2023-05-10T06:59:46;38.03;;;35.13;;
11431;SDS011;5772;50.940;6.782;2023-05-10T07:02:12;37.13;;;34.40;;
11431;SDS011;5772;50.940;6.782;2023-05-10T07:04:37;37.37;;;35.07;;
11431;SDS011;5772;50.940;6.782;2023-05-10T07:07:02;35.77;;;33.40;;
11431;SDS011;5772;50.940;6.782;2023-05-10T07:09:28;35.40;;;33.23;;
11431;SDS011;5772;50.940;6.782;2023-05-10T07:11:55;35.93;;;33.53;;
11431;SDS011;5772;50.940;6.782;2023-05-10T07:14:20;33.73;;;31.10;;
11431;SDS011;5772;50.940;6.782;2023-05-10T07:16:45;34.00;;;31.73;;
11431;SDS011;5772;50.940;6.782;2023-05-10T07:19:10;30.97;;;28.97;;
11431;SDS011;5772;50.940;6.782;2023-05-10T07:21:36;33.90;;;31.20;;
11431;SDS011;5772;50.940;6.782;2023-05-10T07:24:01;34.53;;;32.07;;
11431;SDS011;5772;50.940;6.782;2023-05-10T07:26:26;36.17;;;33.37;;
11431;SDS011;5772;50.940;6.782;2023-05-10T07:28:53;36.33;;;33.73;;
11431;SDS011;5772;50.940;6.782;2023-05-10T07:31:19;36.93;;;34.53;;
11431;SDS011;5772;50.940;6.782;2023-05-10T07:33:44;35.50;;;33.00;;
11431;SDS011;5772;50.940;6.782;2023-05-10T07:36:09;34.03;;;31.67;;
11431;SDS011;5772;50.940;6.782;2023-05-10T07:38:35;35.17;;;32.93;;
11431;SDS011;5772;50.940;6.782;2023-05-10T07:41:00;32.70;;;30.50;;
11431;SDS011;5772;50.940;6.782;2023-05-10T07:43:26;34.43;;;32.07;;
11431;SDS011;5772;50.940;6.782;2023-05-10T07:45:53;29.77;;;27.87;;
11431;SDS011;5772;50.940;6.782;2023-05-10T07:48:18;31.50;;;29.57;;
11431;SDS011;5772;50.940;6.782;2023-05-10T07:50:43;32.13;;;30.13;;
11431;SDS011;5772;50.940;6.782;2023-05-10T07:53:09;31.90;;;30.00;;
11431;SDS011;5772;50.940;6.782;2023-05-10T07:55:34;32.57;;;30.23;;
11431;SDS011;5772;50.940;6.782;2023-05-10T07:57:59;29.93;;;27.90;;
11431;SDS011;5772;50.940;6.782;2023-05-10T08:00:25;29.67;;;27.70;;
11431;SDS011;5772;50.940;6.782;2023-05-10T08:02:51;30.73;;;28.93;;
11431;SDS011;5772;50.940;6.782;2023-05-10T08:05:17;31.93;;;30.13;;
11431;SDS011;5772;50.940;6.782;2023-05-10T08:07:42;28.97;;;27.30;;
11431;SDS011;5772;50.940;6.782;2023-05-10T08:10:08;29.73;;;28.07;;
11431;SDS011;5772;50.940;6.782;2023-05-10T08:12:34;29.50;;;27.20;;
11431;SDS011;5772;50.940;6.782;2023-05-10T08:14:59;30.63;;;28.63;;
11431;SDS011;5772;50.940;6.782;2023-05-10T08:17:24;30.30;;;28.33;;
11431;SDS011;5772;50.940;6.782;2023-05-10T08:19:51;33.83;;;31.67;;
11431;SDS011;5772;50.940;6.782;2023-05-10T08:22:17;34.17;;;31.97;;
11431;SDS011;5772;50.940;6.782;2023-05-10T08:24:42;34.27;;;31.73;;
11431;SDS011;5772;50.940;6.782;2023-05-10T08:27:07;34.63;;;32.33;;
11431;SDS011;5772;50.940;6.782;2023-05-10T08:29:33;33.13;;;30.93;;
11431;SDS011;5772;50.940;6.782;2023-05-10T08:31:58;34.73;;;32.50;;
11431;SDS011;5772;50.940;6.782;2023-05-10T08:34:24;34.57;;;32.27;;
11431;SDS011;5772;50.940;6.782;2023-05-10T08:36:50;34.60;;;32.30;;
11431;SDS011;5772;50.940;6.782;2023-05-10T08:39:16;35.70;;;33.60;;
11431;SDS011;5772;50.940;6.782;2023-05-10T08:41:41;34.50;;;32.60;;
11431;SDS011;5772;50.940;6.782;2023-05-10T08:44:08;35.00;;;32.87;;
11431;SDS011;5772;50.940;6.782;2023-05-10T08:46:34;33.77;;;31.53;;
11431;SDS011;5772;50.940;6.782;2023-05-10T08:49:02;31.27;;;29.63;;
11431;SDS011;5772;50.940;6.782;2023-05-10T08:51:29;27.67;;;26.20;;
11431;SDS011;5772;50.940;6.782;2023-05-10T08:53:58;27.40;;;25.90;;
11431;SDS011;5772;50.940;6.782;2023-05-10T08:56:23;26.77;;;25.07;;
11431;SDS011;5772;50.940;6.782;2023-05-10T08:58:49;25.67;;;24.17;;
11431;SDS011;5772;50.940;6.782;2023-05-10T09:01:15;26.80;;;25.40;;
11431;SDS011;5772;50.940;6.782;2023-05-10T09:03:41;26.83;;;25.03;;
11431;SDS011;5772;50.940;6.782;2023-05-10T09:06:07;28.87;;;27.27;;
11431;SDS011;5772;50.940;6.782;2023-05-10T09:08:32;27.27;;;25.77;;
11431;SDS011;5772;50.940;6.782;2023-05-10T09:11:00;33.83;;;32.10;;
11431;SDS011;5772;50.940;6.782;2023-05-10T09:13:25;28.70;;;27.10;;
11431;SDS011;5772;50.940;6.782;2023-05-10T09:15:51;28.87;;;27.27;;
11431;SDS011;5772;50.940;6.782;2023-05-10T09:18:17;30.77;;;28.77;;
11431;SDS011;5772;50.940;6.782;2023-05-10T09:20:42;28.20;;;26.47;;
11431;SDS011;5772;50.940;6.782;2023-05-10T09:23:08;29.07;;;27.20;;
11431;SDS011;5772;50.940;6.782;2023-05-10T09:25:33;31.57;;;29.43;;
11431;SDS011;5772;50.940;6.782;2023-05-10T09:28:00;27.53;;;25.83;;
11431;SDS011;5772;50.940;6.782;2023-05-10T09:30:26;28.10;;;26.30;;
11431;SDS011;5772;50.940;6.782;2023-05-10T09:32:52;28.80;;;26.80;;
11431;SDS011;5772;50.940;6.782;2023-05-10T09:35:19;28.83;;;26.67;;
11431;SDS011;5772;50.940;6.782;2023-05-10T09:37:46;33.60;;;31.57;;
11431;SDS011;5772;50.940;6.782;2023-05-10T09:40:13;35.43;;;33.07;;
11431;SDS011;5772;50.940;6.782;2023-05-10T09:42:40;35.37;;;32.40;;
11431;SDS011;5772;50.940;6.782;2023-05-10T09:45:08;29.73;;;27.70;;
11431;SDS011;5772;50.940;6.782;2023-05-10T09:47:34;28.97;;;27.00;;
11431;SDS011;5772;50.940;6.782;2023-05-10T09:50:00;27.77;;;25.73;;
11431;SDS011;5772;50.940;6.782;2023-05-10T09:52:25;27.67;;;25.07;;
11431;SDS011;5772;50.940;6.782;2023-05-10T09:54:52;26.10;;;24.20;;
11431;SDS011;5772;50.940;6.782;2023-05-10T09:57:18;24.03;;;22.63;;
11431;SDS011;5772;50.940;6.782;2023-05-10T09:59:45;24.73;;;22.97;;
11431;SDS011;5772;50.940;6.782;2023-05-10T10:02:11;27.40;;;25.53;;
11431;SDS011;5772;50.940;6.782;2023-05-10T10:04:38;23.47;;;22.10;;
11431;SDS011;5772;50.940;6.782;2023-05-10T10:07:04;21.47;;;20.03;;
11431;SDS011;5772;50.940;6.782;2023-05-10T10:09:30;21.30;;;19.80;;
11431;SDS011;5772;50.940;6.782;2023-05-10T10:11:56;20.83;;;19.60;;
11431;SDS011;5772;50.940;6.782;2023-05-10T10:14:21;22.30;;;20.93;;
11431;SDS011;5772;50.940;6.782;2023-05-10T10:16:47;23.23;;;21.40;;
11431;SDS011;5772;50.940;6.782;2023-05-10T10:19:13;20.27;;;19.07;;
11431;SDS011;5772;50.940;6.782;2023-05-10T10:21:39;21.67;;;20.10;;
11431;SDS011;5772;50.940;6.782;2023-05-10T10:24:05;23.53;;;22.00;;
11431;SDS011;5772;50.940;6.782;2023-05-10T10:26:31;21.70;;;20.20;;
11431;SDS011;5772;50.940;6.782;2023-05-10T10:29:00;22.13;;;20.73;;
11431;SDS011;5772;50.940;6.782;2023-05-10T10:31:32;23.57;;;22.03;;
11431;SDS011;5772;50.940;6.782;2023-05-10T10:34:03;24.00;;;22.47;;
11431;SDS011;5772;50.940;6.782;2023-05-10T10:36:32;22.63;;;21.00;;
11431;SDS011;5772;50.940;6.782;2023-05-10T10:38:57;23.93;;;22.53;;
11431;SDS011;5772;50.940;6.782;2023-05-10T10:41:27;23.27;;;21.97;;
11431;SDS011;5772;50.940;6.782;2023-05-10T10:47:07;23.70;;;22.33;;
11431;SDS011;5772;50.940;6.782;2023-05-10T10:49:41;21.73;;;20.40;;
11431;SDS011;5772;50.940;6.782;2023-05-10T10:52:15;22.37;;;20.83;;
11431;SDS011;5772;50.940;6.782;2023-05-10T10:54:49;22.70;;;21.30;;
11431;SDS011;5772;50.940;6.782;2023-05-10T10:57:17;19.27;;;18.17;;
11431;SDS011;5772;50.940;6.782;2023-05-10T10:59:43;22.57;;;21.27;;
11431;SDS011;5772;50.940;6.782;2023-05-10T11:02:08;20.73;;;19.33;;
11431;SDS011;5772;50.940;6.782;2023-05-10T11:04:41;17.73;;;16.83;;
11431;SDS011;5772;50.940;6.782;2023-05-10T11:07:17;20.27;;;19.27;;
11431;SDS011;5772;50.940;6.782;2023-05-10T11:09:43;20.60;;;19.40;;
11431;SDS011;5772;50.940;6.782;2023-05-10T11:12:08;20.90;;;19.75;;
11431;SDS011;5772;50.940;6.782;2023-05-10T11:14:34;20.60;;;19.60;;
11431;SDS011;5772;50.940;6.782;2023-05-10T11:16:59;20.57;;;19.63;;
11431;SDS011;5772;50.940;6.782;2023-05-10T11:19:27;20.07;;;19.17;;
11431;SDS011;5772;50.940;6.782;2023-05-10T11:22:12;18.63;;;17.77;;
11431;SDS011;5772;50.940;6.782;2023-05-10T11:24:39;18.90;;;17.90;;
11431;SDS011;5772;50.940;6.782;2023-05-10T11:27:05;18.50;;;17.60;;
11431;SDS011;5772;50.940;6.782;2023-05-10T11:29:30;18.77;;;17.87;;
11431;SDS011;5772;50.940;6.782;2023-05-10T11:31:56;17.70;;;16.80;;
11431;SDS011;5772;50.940;6.782;2023-05-10T11:34:22;19.13;;;18.23;;
11431;SDS011;5772;50.940;6.782;2023-05-10T11:36:50;19.03;;;18.03;;
11431;SDS011;5772;50.940;6.782;2023-05-10T11:39:16;19.73;;;18.80;;
11431;SDS011;5772;50.940;6.782;2023-05-10T11:41:43;19.10;;;18.27;;
11431;SDS011;5772;50.940;6.782;2023-05-10T11:44:08;19.73;;;18.80;;
11431;SDS011;5772;50.940;6.782;2023-05-10T11:46:34;22.10;;;21.03;;
11431;SDS011;5772;50.940;6.782;2023-05-10T11:48:59;22.67;;;21.57;;
11431;SDS011;5772;50.940;6.782;2023-05-10T11:51:25;21.00;;;20.10;;
11431;SDS011;5772;50.940;6.782;2023-05-10T11:53:53;22.33;;;21.33;;
11431;SDS011;5772;50.940;6.782;2023-05-10T11:56:19;20.73;;;19.80;;
11431;SDS011;5772;50.940;6.782;2023-05-10T11:58:51;20.65;;;19.70;;
11431;SDS011;5772;50.940;6.782;2023-05-10T12:01:17;20.38;;;19.45;;
11431;SDS011;5772;50.940;6.782;2023-05-10T12:03:43;18.80;;;18.00;;
11431;SDS011;5772;50.940;6.782;2023-05-10T12:06:08;19.73;;;18.65;;
11431;SDS011;5772;50.940;6.782;2023-05-10T12:08:34;19.55;;;18.75;;
11431;SDS011;5772;50.940;6.782;2023-05-10T12:11:06;20.83;;;19.93;;
11431;SDS011;5772;50.940;6.782;2023-05-10T12:13:32;20.00;;;19.13;;
11431;SDS011;5772;50.940;6.782;2023-05-10T12:15:58;19.33;;;18.43;;
11431;SDS011;5772;50.940;6.782;2023-05-10T12:18:24;22.13;;;21.20;;
11431;SDS011;5772;50.940;6.782;2023-05-10T12:20:51;18.87;;;18.03;;
11431;SDS011;5772;50.940;6.782;2023-05-10T12:23:16;20.07;;;18.93;;
11431;SDS011;5772;50.940;6.782;2023-05-10T12:25:42;20.90;;;20.00;;
11431;SDS011;5772;50.940;6.782;2023-05-10T12:28:07;19.83;;;18.93;;
11431;SDS011;5772;50.940;6.782;2023-05-10T12:30:34;20.08;;;19.10;;
11431;SDS011;5772;50.940;6.782;2023-05-10T12:33:01;20.33;;;19.43;;
11431;SDS011;5772;50.940;6.782;2023-05-10T12:35:31;19.40;;;18.60;;
11431;SDS011;5772;50.940;6.782;2023-05-10T12:37:57;20.38;;;19.48;;
11431;SDS011;5772;50.940;6.782;2023-05-10T12:40:22;20.57;;;19.67;;
11431;SDS011;5772;50.940;6.782;2023-05-10T12:42:48;19.33;;;18.52;;
11431;SDS011;5772;50.940;6.782;2023-05-10T12:45:13;18.65;;;17.75;;
11431;SDS011;5772;50.940;6.782;2023-05-10T12:47:38;18.00;;;17.20;;
11431;SDS011;5772;50.940;6.782;2023-05-10T12:50:06;18.55;;;17.75;;
11431;SDS011;5772;50.940;6.782;2023-05-10T12:52:32;16.98;;;16.17;;
11431;SDS011;5772;50.940;6.782;2023-05-10T12:54:57;16.05;;;15.15;;
11431;SDS011;5772;50.940;6.782;2023-05-10T12:57:23;16.85;;;16.15;;
11431;SDS011;5772;50.940;6.782;2023-05-10T12:59:48;15.40;;;14.70;;
11431;SDS011;5772;50.940;6.782;2023-05-10T13:02:13;15.73;;;15.13;;
11431;SDS011;5772;50.940;6.782;2023-05-10T13:04:40;15.63;;;15.00;;
11431;SDS011;5772;50.940;6.782;2023-05-10T13:07:07;15.18;;;14.57;;
11431;SDS011;5772;50.940;6.782;2023-05-10T13:09:32;16.67;;;16.02;;
11431;SDS011;5772;50.940;6.782;2023-05-10T13:11:58;16.30;;;15.60;;
11431;SDS011;5772;50.940;6.782;2023-05-10T13:14:23;16.40;;;15.70;;
11431;SDS011;5772;50.940;6.782;2023-05-10T13:16:49;16.70;;;16.00;;
11431;SDS011;5772;50.940;6.782;2023-05-10T13:19:15;15.45;;;14.85;;
11431;SDS011;5772;50.940;6.782;2023-05-10T13:21:41;15.73;;;15.02;;
11431;SDS011;5772;50.940;6.782;2023-05-10T13:24:07;15.40;;;14.70;;
11431;SDS011;5772;50.940;6.782;2023-05-10T13:26:34;15.45;;;14.75;;
11431;SDS011;5772;50.940;6.782;2023-05-10T13:28:59;15.65;;;14.95;;
11431;SDS011;5772;50.940;6.782;2023-05-10T13:31:25;15.25;;;14.65;;
11431;SDS011;5772;50.940;6.782;2023-05-10T13:33:50;15.82;;;15.23;;
11431;SDS011;5772;50.940;6.782;2023-05-10T13:36:15;16.67;;;15.98;;
11431;SDS011;5772;50.940;6.782;2023-05-10T13:38:41;16.00;;;15.40;;
11431;SDS011;5772;50.940;6.782;2023-05-10T13:41:08;16.20;;;15.50;;
11431;SDS011;5772;50.940;6.782;2023-05-10T13:43:33;15.98;;;15.38;;
11431;SDS011;5772;50.940;6.782;2023-05-10T13:45:58;15.70;;;15.00;;
11431;SDS011;5772;50.940;6.782;2023-05-10T13:48:24;16.15;;;15.45;;
11431;SDS011;5772;50.940;6.782;2023-05-10T13:50:49;15.98;;;15.27;;
11431;SDS011;5772;50.940;6.782;2023-05-10T13:53:14;16.60;;;15.77;;
11431;SDS011;5772;50.940;6.782;2023-05-10T13:55:40;15.23;;;14.63;;
11431;SDS011;5772;50.940;6.782;2023-05-10T13:58:07;16.42;;;15.65;;
11431;SDS011;5772;50.940;6.782;2023-05-10T14:00:32;14.95;;;14.35;;
11431;SDS011;5772;50.940;6.782;2023-05-10T14:02:58;14.98;;;14.32;;
11431;SDS011;5772;50.940;6.782;2023-05-10T14:05:23;14.88;;;14.27;;
11431;SDS011;5772;50.940;6.782;2023-05-10T14:07:49;15.57;;;14.98;;
11431;SDS011;5772;50.940;6.782;2023-05-10T14:10:14;15.82;;;15.20;;
11431;SDS011;5772;50.940;6.782;2023-05-10T14:12:40;14.40;;;13.70;;
11431;SDS011;5772;50.940;6.782;2023-05-10T14:15:07;14.27;;;13.68;;
11431;SDS011;5772;50.940;6.782;2023-05-10T14:17:33;14.48;;;13.88;;
11431;SDS011;5772;50.940;6.782;2023-05-10T14:19:58;15.85;;;15.05;;
11431;SDS011;5772;50.940;6.782;2023-05-10T14:22:23;15.73;;;15.13;;
11431;SDS011;5772;50.940;6.782;2023-05-10T14:24:49;15.00;;;14.40;;
11431;SDS011;5772;50.940;6.782;2023-05-10T14:27:14;16.20;;;15.45;;
11431;SDS011;5772;50.940;6.782;2023-05-10T14:29:39;15.48;;;14.85;;
11431;SDS011;5772;50.940;6.782;2023-05-10T14:32:06;18.35;;;17.35;;